Terminal Aerodrome Forecast
Issued by NWS Boston, MA

Home | Current Version | Previous Version | Text Only | Print | Product List | Glossary On
Versions: 1 2 3 4 5 6 7 8 9 10 11 12 13 14 15 16 17 18 19 20
000
FTUS41 KBOX 280528
TAFORH
TAF
KORH 280528Z 2806/0106 24007KT P6SM FEW080
     FM280900 25005KT P6SM BKN050
     FM281600 19004KT P6SM SCT070
     FM010300 18006KT 3/4SM BR VCSH OVC008
     FM010500 19007KT 1SM -RA BR OVC008=

USA.gov is the U.S. government's official web portal to all federal, state and local government web resources and services.